Time;durP1;ratioP1;P1;durP2;ratioP2;P2;SDS_P1;SDS_P2;PMS_P1;PMS_P2;Temp;Humidity;BMP_temperature;BMP_pressure;BME280_temperature;BME280_humidity;BME280_pressure;Samples;Min_cycle;Max_cycle;Signal;HPM_P1;HPM_P2
2022/05/27 00:01:10;;;;;;;7.38;2.08;;;13.80;99.90;;;;;;4974846;28;20103;-84
2022/05/27 00:03:36;;;;;;;8.00;3.03;;;13.80;99.90;;;;;;4958607;28;20130;-85
2022/05/27 00:06:03;;;;;;;7.80;2.30;;;13.80;99.90;;;;;;4974771;28;20042;-85
2022/05/27 00:08:28;;;;;;;8.30;2.53;;;13.80;99.90;;;;;;4974596;28;20057;-84
2022/05/27 00:10:55;;;;;;;7.15;2.47;;;13.80;99.90;;;;;;4978369;28;20034;-84
2022/05/27 00:13:21;;;;;;;6.32;2.03;;;13.70;99.90;;;;;;4978530;28;20101;-84
2022/05/27 00:15:47;;;;;;;9.40;3.33;;;13.80;99.90;;;;;;4962447;28;20069;-84
2022/05/27 00:18:12;;;;;;;8.93;2.65;;;13.70;99.90;;;;;;4978171;28;20689;-84
2022/05/27 00:20:38;;;;;;;9.35;3.05;;;13.70;99.90;;;;;;4978251;28;20466;-84
2022/05/27 00:23:05;;;;;;;10.65;2.58;;;13.70;99.90;;;;;;4978707;28;20050;-84
2022/05/27 00:25:30;;;;;;;8.57;3.25;;;13.70;99.90;;;;;;4978584;28;20046;-84
2022/05/27 00:27:57;;;;;;;8.27;3.05;;;13.70;99.90;;;;;;4978360;28;20049;-83
2022/05/27 00:30:23;;;;;;;7.13;2.50;;;13.80;99.90;;;;;;4962085;28;20408;-84
2022/05/27 00:32:48;;;;;;;7.22;2.45;;;13.80;99.90;;;;;;4962364;28;20045;-84
2022/05/27 00:35:15;;;;;;;5.82;2.25;;;13.70;99.90;;;;;;4977937;28;20038;-84
2022/05/27 00:37:40;;;;;;;8.93;2.50;;;13.70;99.90;;;;;;4977886;28;20046;-84
2022/05/27 00:40:08;;;;;;;6.32;2.28;;;13.70;99.90;;;;;;4962134;28;20388;-84
2022/05/27 00:42:43;;;;;;;8.32;2.28;;;13.70;99.90;;;;;;4978288;28;20150;-84
2022/05/27 00:45:19;;;;;;;6.32;2.25;;;13.60;99.90;;;;;;4962038;28;20088;-84
2022/05/27 00:47:47;;;;;;;10.90;3.33;;;13.60;99.90;;;;;;4961616;28;20046;-85
2022/05/27 00:50:16;;;;;;;8.25;2.22;;;13.70;99.90;;;;;;4977875;28;20039;-84
2022/05/27 00:52:45;;;;;;;7.85;2.88;;;13.60;99.90;;;;;;4977861;28;20057;-84
2022/05/27 00:55:16;;;;;;;6.70;2.15;;;13.70;99.90;;;;;;4977703;28;20491;-84
2022/05/27 00:57:51;;;;;;;8.60;2.13;;;13.60;99.90;;;;;;4961335;28;20038;-84
2022/05/27 01:00:20;;;;;;;5.95;1.98;;;13.60;99.90;;;;;;4977649;28;20043;-83
2022/05/27 01:02:46;;;;;;;8.73;2.97;;;13.60;99.90;;;;;;4961705;28;20030;-84
2022/05/27 01:05:15;;;;;;;8.32;2.47;;;13.60;99.90;;;;;;4977543;28;20049;-83
2022/05/27 01:07:41;;;;;;;7.93;3.25;;;13.60;99.90;;;;;;4977257;28;20619;-84
2022/05/27 01:10:11;;;;;;;7.50;2.35;;;13.70;99.90;;;;;;4977451;28;20066;-84
2022/05/27 01:13:00;;;;;;;11.48;2.47;;;13.60;99.90;;;;;;4977449;28;20042;-83
2022/05/27 01:15:47;;;;;;;9.32;3.08;;;13.60;99.90;;;;;;4977408;28;20041;-83
2022/05/27 01:20:18;;;;;;;7.13;3.17;;;13.70;99.90;;;;;;4977113;28;20042;-84
2022/05/27 01:21:22;;;;;;;10.02;2.92;;;13.60;99.90;;;;;;4976655;28;20133;-84
2022/05/27 01:24:13;;;;;;;10.05;3.00;;;13.60;99.90;;;;;;4977639;28;20061;-83
2022/05/27 01:27:13;;;;;;;10.75;4.18;;;13.60;99.90;;;;;;4976841;28;20038;-84
2022/05/27 01:30:09;;;;;;;8.70;2.88;;;13.70;99.90;;;;;;4960817;28;20050;-84
2022/05/27 01:32:43;;;;;;;11.32;2.97;;;13.70;99.90;;;;;;4977178;28;20096;-83
2022/05/27 01:35:27;;;;;;;11.05;4.88;;;13.70;99.90;;;;;;4977275;28;20071;-84
2022/05/27 01:38:18;;;;;;;8.73;3.42;;;13.80;99.90;;;;;;4976994;28;20043;-83
2022/05/27 01:41:06;;;;;;;8.18;3.70;;;13.80;99.90;;;;;;4977391;28;20101;-84
2022/05/27 01:43:43;;;;;;;11.45;3.50;;;13.70;99.90;;;;;;4976895;28;20038;-84
2022/05/27 01:46:29;;;;;;;10.75;5.07;;;13.70;99.90;;;;;;4976871;28;20053;-83
2022/05/27 01:49:10;;;;;;;11.05;3.92;;;13.80;99.90;;;;;;4976453;28;20088;-84
2022/05/27 01:52:05;;;;;;;12.35;5.00;;;13.80;99.90;;;;;;4976803;28;20038;-84
2022/05/27 01:54:59;;;;;;;10.82;3.63;;;13.80;99.90;;;;;;4976636;28;20039;-84
2022/05/27 01:57:56;;;;;;;11.32;3.60;;;13.80;99.90;;;;;;4960815;28;20046;-84
2022/05/27 02:00:25;;;;;;;10.00;5.07;;;13.70;99.90;;;;;;4976884;28;20072;-84
2022/05/27 02:02:59;;;;;;;10.70;4.07;;;13.70;99.90;;;;;;4976647;28;20038;-84
2022/05/27 02:05:34;;;;;;;10.40;3.88;;;13.60;99.90;;;;;;4960673;28;20125;-83
2022/05/27 02:08:11;;;;;;;14.80;5.40;;;13.60;99.90;;;;;;4976286;28;20046;-83
2022/05/27 02:10:44;;;;;;;11.57;4.03;;;13.60;99.90;;;;;;4960338;28;20117;-84
2022/05/27 02:13:12;;;;;;;;;;;13.50;99.90;;;;;;4960631;28;20046;-84
2022/05/27 02:15:42;;;;;;;14.60;4.40;;;13.50;99.90;;;;;;4960236;28;20406;-84
2022/05/27 02:18:21;;;;;;;11.48;4.15;;;13.40;99.90;;;;;;4976079;28;20042;-84
2022/05/27 02:20:54;;;;;;;13.48;4.88;;;13.40;99.90;;;;;;4976329;28;20038;-84
2022/05/27 02:23:35;;;;;;;11.18;4.15;;;13.40;99.90;;;;;;4960034;28;20053;-84
2022/05/27 02:26:06;;;;;;;12.18;4.45;;;13.40;99.90;;;;;;4976154;28;20419;-84
2022/05/27 02:28:39;;;;;;;12.98;4.60;;;13.40;99.90;;;;;;4976023;28;20404;-84
2022/05/27 02:31:09;;;;;;;17.17;6.53;;;13.40;99.90;;;;;;4960308;28;20052;-84
2022/05/27 02:36:30;;;;;;;14.30;4.10;;;13.40;99.90;;;;;;4975987;28;20508;-84
2022/05/27 02:38:56;;;;;;;13.20;3.85;;;13.40;99.90;;;;;;4975566;28;20046;-83
2022/05/27 02:41:41;;;;;;;17.70;5.93;;;13.30;99.90;;;;;;4975928;28;20045;-83
2022/05/27 02:44:32;;;;;;;12.95;4.00;;;13.30;99.90;;;;;;4975840;28;20073;-84
2022/05/27 02:47:05;;;;;;;13.90;5.90;;;13.30;99.90;;;;;;4976089;28;20046;-84
2022/05/27 02:49:37;;;;;;;12.48;3.45;;;13.30;99.90;;;;;;4975318;28;20043;-84
2022/05/27 02:52:24;;;;;;;11.82;3.45;;;13.20;99.90;;;;;;4975934;28;20057;-84
2022/05/27 02:55:00;;;;;;;13.93;4.22;;;13.20;99.90;;;;;;4975352;28;20065;-84
2022/05/27 02:57:47;;;;;;;10.70;3.47;;;13.20;99.90;;;;;;4975706;28;20584;-84
2022/05/27 03:00:22;;;;;;;13.27;3.90;;;13.10;99.90;;;;;;4975743;28;20041;-83
2022/05/27 03:02:48;;;;;;;14.60;3.35;;;13.10;99.90;;;;;;4975554;28;20061;-84
2022/05/27 03:05:18;;;;;;;13.25;3.75;;;13.10;99.90;;;;;;4975135;28;20484;-84
2022/05/27 03:07:44;;;;;;;13.50;4.18;;;13.00;99.90;;;;;;4975126;28;20097;-83
2022/05/27 03:10:43;;;;;;;15.10;4.47;;;13.00;99.90;;;;;;4975222;28;20046;-84
2022/05/27 03:13:25;;;;;;;12.65;4.63;;;13.00;99.90;;;;;;4975429;28;20129;-83
2022/05/27 03:16:26;;;;;;;15.73;3.58;;;13.00;99.90;;;;;;4975398;28;20038;-84
2022/05/27 03:19:19;;;;;;;13.43;4.05;;;13.00;99.90;;;;;;4958736;28;20523;-83
2022/05/27 03:22:06;;;;;;;15.05;3.97;;;12.90;99.90;;;;;;4975098;28;20130;-83
2022/05/27 03:24:55;;;;;;;16.90;5.75;;;12.90;99.90;;;;;;4975229;28;20097;-84
2022/05/27 03:27:39;;;;;;;18.02;3.85;;;13.00;99.90;;;;;;4975386;28;20053;-84
2022/05/27 03:30:16;;;;;;;15.75;4.70;;;13.00;99.90;;;;;;4975010;28;20165;-84
2022/05/27 03:32:59;;;;;;;13.52;3.28;;;12.90;99.90;;;;;;4959065;28;20046;-84
2022/05/27 03:35:27;;;;;;;14.27;3.53;;;12.90;99.90;;;;;;4958951;28;20046;-83
2022/05/27 03:38:12;;;;;;;15.40;4.63;;;12.90;99.90;;;;;;4975104;28;20117;-84
2022/05/27 03:40:47;;;;;;;13.90;3.90;;;12.90;99.90;;;;;;4975036;28;20045;-83
2022/05/27 03:43:14;;;;;;;13.93;3.28;;;12.90;99.90;;;;;;4974976;28;20515;-84
2022/05/27 03:45:55;;;;;;;16.23;3.70;;;12.90;99.90;;;;;;4974624;28;20046;-84
2022/05/27 03:48:22;;;;;;;14.43;3.28;;;12.90;99.90;;;;;;4974486;28;20089;-84
2022/05/27 03:50:50;;;;;;;20.73;4.95;;;12.90;99.90;;;;;;4974844;28;20038;-84
2022/05/27 03:53:16;;;;;;;13.27;3.97;;;12.90;99.90;;;;;;4958866;28;20046;-84
2022/05/27 03:55:44;;;;;;;18.33;4.25;;;12.90;99.90;;;;;;4974793;28;20389;-82
2022/05/27 03:58:17;;;;;;;20.15;6.05;;;12.90;99.90;;;;;;4974558;28;20050;-84
2022/05/27 04:00:43;;;;;;;18.35;4.35;;;13.00;99.90;;;;;;4974787;28;20563;-84
2022/05/27 04:03:10;;;;;;;15.23;3.92;;;12.90;99.90;;;;;;4974833;28;20121;-84
2022/05/27 04:05:36;;;;;;;15.38;4.18;;;12.90;99.90;;;;;;4958386;28;20050;-83
2022/05/27 04:08:02;;;;;;;14.07;3.47;;;12.90;99.90;;;;;;4974643;28;20057;-83
2022/05/27 04:10:27;;;;;;;14.90;3.97;;;12.90;99.90;;;;;;4974702;28;20555;-84
2022/05/27 04:12:53;;;;;;;17.80;4.85;;;12.90;99.90;;;;;;4974683;28;20046;-83
2022/05/27 04:15:19;;;;;;;17.73;3.78;;;13.00;99.90;;;;;;4974838;28;20139;-83
2022/05/27 04:17:44;;;;;;;13.55;3.15;;;12.90;99.90;;;;;;4974235;28;20057;-83
2022/05/27 04:20:16;;;;;;;17.10;4.03;;;12.90;99.90;;;;;;4958383;28;20042;-84
2022/05/27 04:22:42;;;;;;;11.77;2.85;;;12.90;99.90;;;;;;4958840;28;20369;-84
2022/05/27 04:25:09;;;;;;;18.02;4.55;;;12.90;99.90;;;;;;4974461;28;20042;-84
2022/05/27 04:27:35;;;;;;;15.50;3.35;;;12.90;99.90;;;;;;4974356;28;20042;-83
2022/05/27 04:30:01;;;;;;;18.10;5.15;;;12.90;99.90;;;;;;4974403;28;20081;-84
2022/05/27 04:32:26;;;;;;;16.40;3.42;;;13.00;99.90;;;;;;4958428;28;20440;-84
2022/05/27 04:34:53;;;;;;;13.15;3.97;;;13.00;99.90;;;;;;4974393;28;20038;-83
2022/05/27 04:37:19;;;;;;;19.30;5.05;;;13.00;99.90;;;;;;4974720;28;20096;-84
2022/05/27 04:39:45;;;;;;;17.10;3.40;;;13.10;99.90;;;;;;4974144;28;20070;-83
2022/05/27 04:42:11;;;;;;;14.80;3.60;;;13.10;99.90;;;;;;4974495;28;20069;-84
2022/05/27 04:44:37;;;;;;;11.95;3.40;;;13.10;99.90;;;;;;4974735;28;20046;-84
2022/05/27 04:47:04;;;;;;;13.38;3.20;;;13.10;99.90;;;;;;4974340;28;20050;-84
2022/05/27 04:52:14;;;;;;;15.48;3.83;;;13.10;99.90;;;;;;4974317;28;20531;-84
2022/05/27 04:54:40;;;;;;;16.13;3.67;;;13.10;99.90;;;;;;4974238;28;20046;-83
2022/05/27 04:57:06;;;;;;;14.23;3.15;;;13.10;99.90;;;;;;4959952;28;20133;-84
2022/05/27 04:59:36;;;;;;;13.77;3.03;;;13.10;99.90;;;;;;4977657;28;20061;-84
2022/05/27 05:02:05;;;;;;;15.60;3.70;;;13.10;99.90;;;;;;4977781;28;20042;-83
2022/05/27 05:04:31;;;;;;;15.25;3.40;;;13.10;99.90;;;;;;4977541;28;20046;-84
2022/05/27 05:07:02;;;;;;;15.60;5.35;;;13.10;99.90;;;;;;4978041;28;20407;-84
2022/05/27 05:09:28;;;;;;;10.43;2.73;;;13.10;99.90;;;;;;4961265;28;20042;-83
2022/05/27 05:11:53;;;;;;;18.05;4.70;;;13.10;99.90;;;;;;4961482;28;20301;-84
2022/05/27 05:14:19;;;;;;;17.25;3.50;;;13.10;99.90;;;;;;4977300;28;20038;-83
2022/05/27 05:16:45;;;;;;;14.82;4.90;;;13.10;99.90;;;;;;4961477;28;20049;-83
2022/05/27 05:19:10;;;;;;;14.32;3.35;;;13.10;99.90;;;;;;4976932;28;20487;-83
2022/05/27 05:21:36;;;;;;;11.30;3.58;;;13.10;99.90;;;;;;4977724;28;20097;-83
2022/05/27 05:24:03;;;;;;;13.52;4.18;;;13.10;99.90;;;;;;4977427;28;20052;-83
2022/05/27 05:26:28;;;;;;;11.65;2.72;;;13.10;99.90;;;;;;4961055;28;20034;-83
2022/05/27 05:28:54;;;;;;;18.25;3.45;;;13.10;99.90;;;;;;4976862;28;20050;-84
2022/05/27 05:31:20;;;;;;;15.70;4.70;;;13.10;99.90;;;;;;4977240;28;20038;-84
2022/05/27 05:33:45;;;;;;;13.70;2.88;;;13.20;99.90;;;;;;4977444;28;20045;-83
2022/05/27 05:36:11;;;;;;;12.57;2.88;;;13.20;99.90;;;;;;4977115;28;20511;-83
2022/05/27 05:38:37;;;;;;;15.60;3.25;;;13.30;99.90;;;;;;4977114;28;20093;-83
2022/05/27 05:41:03;;;;;;;14.98;2.75;;;13.40;99.90;;;;;;4961004;28;20480;-84
2022/05/27 05:43:29;;;;;;;12.85;2.42;;;13.40;99.90;;;;;;4977101;28;20065;-84
2022/05/27 05:45:54;;;;;;;10.55;2.55;;;13.40;99.90;;;;;;4960886;28;20499;-84
2022/05/27 05:48:20;;;;;;;14.32;3.78;;;13.40;99.90;;;;;;4976713;28;20042;-84
2022/05/27 05:50:46;;;;;;;11.80;2.70;;;13.50;99.90;;;;;;4982119;28;20037;-84
2022/05/27 05:53:11;;;;;;;14.73;2.65;;;13.60;99.90;;;;;;4975168;28;20097;-83
2022/05/27 05:55:37;;;;;;;9.38;2.33;;;13.50;99.90;;;;;;4960243;28;20030;-83
2022/05/27 05:58:03;;;;;;;13.35;3.33;;;13.50;99.90;;;;;;4959797;28;20039;-84
2022/05/27 06:00:29;;;;;;;14.23;3.00;;;13.60;99.90;;;;;;4976314;28;20460;-83
2022/05/27 06:02:55;;;;;;;14.50;2.95;;;13.60;99.90;;;;;;4976160;28;20030;-83
2022/05/27 06:05:22;;;;;;;13.90;2.83;;;13.60;99.90;;;;;;4976243;28;20089;-83
2022/05/27 06:07:49;;;;;;;11.73;2.58;;;13.60;99.90;;;;;;4959514;28;20088;-83
2022/05/27 06:10:16;;;;;;;17.38;4.22;;;13.70;99.90;;;;;;4954835;28;20043;-83
2022/05/27 06:12:42;;;;;;;11.85;2.28;;;13.70;99.90;;;;;;4976092;28;20407;-83
2022/05/27 06:15:10;;;;;;;14.52;3.17;;;13.70;99.90;;;;;;4975923;28;20062;-83
2022/05/27 06:17:36;;;;;;;13.73;3.60;;;13.80;99.90;;;;;;4957259;28;20073;-84
2022/05/27 06:20:04;;;;;;;14.13;3.70;;;13.90;99.90;;;;;;4976606;28;20077;-84
2022/05/27 06:22:29;;;;;;;13.90;2.55;;;14.00;99.90;;;;;;4960431;28;20093;-84
2022/05/27 06:24:55;;;;;;;15.15;3.42;;;14.00;99.90;;;;;;4976258;28;20034;-84
2022/05/27 06:27:21;;;;;;;13.05;2.35;;;14.10;99.90;;;;;;4975948;28;20084;-84
2022/05/27 06:35:14;;;;;;;10.23;2.20;;;14.10;99.90;;;;;;4976008;28;20039;-84
2022/05/27 06:37:40;;;;;;;14.90;3.72;;;14.20;99.90;;;;;;4978119;28;20230;-84
2022/05/27 06:40:07;;;;;;;10.95;2.75;;;14.30;99.90;;;;;;4984653;28;20066;-84
2022/05/27 06:42:32;;;;;;;15.07;4.15;;;14.40;99.90;;;;;;4984808;28;20066;-84
2022/05/27 06:44:58;;;;;;;15.35;3.42;;;14.40;99.90;;;;;;4975339;28;20096;-84
2022/05/27 06:47:23;;;;;;;15.48;3.38;;;14.40;99.90;;;;;;4975805;28;20038;-84
2022/05/27 06:49:49;;;;;;;17.27;3.95;;;14.40;99.90;;;;;;4975372;28;20069;-85
2022/05/27 06:52:15;;;;;;;15.50;3.75;;;14.40;99.90;;;;;;4975650;28;20038;-84
2022/05/27 06:54:42;;;;;;;13.10;2.70;;;14.40;99.90;;;;;;4959598;28;20046;-84
2022/05/27 06:57:08;;;;;;;17.88;3.03;;;14.40;99.90;;;;;;4959531;28;20053;-84
2022/05/27 06:59:34;;;;;;;16.25;3.88;;;14.50;99.90;;;;;;4958904;28;20080;-84
2022/05/27 07:02:00;;;;;;;12.75;2.97;;;14.60;99.90;;;;;;4973981;28;20082;-84
2022/05/27 07:04:26;;;;;;;14.27;2.92;;;14.60;99.90;;;;;;4959691;28;20042;-84
2022/05/27 07:06:52;;;;;;;17.73;4.03;;;14.60;99.90;;;;;;4975232;28;20046;-84
2022/05/27 07:09:21;;;;;;;14.02;3.58;;;14.70;99.90;;;;;;4959281;28;20045;-84
2022/05/27 07:11:48;;;;;;;14.10;3.50;;;14.90;99.90;;;;;;4975436;28;20045;-84
2022/05/27 07:14:15;;;;;;;15.52;4.03;;;14.90;99.90;;;;;;4959266;28;20160;-84
2022/05/27 07:16:42;;;;;;;15.48;4.00;;;14.90;99.90;;;;;;4975293;28;20050;-84
2022/05/27 07:19:08;;;;;;;12.18;2.90;;;14.90;99.90;;;;;;4969069;28;20061;-83
2022/05/27 07:21:39;;;;;;;12.88;2.95;;;14.80;99.90;;;;;;4955762;28;20484;-84
2022/05/27 07:24:09;;;;;;;14.27;4.38;;;14.80;99.90;;;;;;4954629;28;20070;-85
2022/05/27 07:26:36;;;;;;;19.75;4.10;;;14.90;99.90;;;;;;4968830;28;20447;-84
2022/05/27 07:29:02;;;;;;;13.45;3.60;;;14.90;99.90;;;;;;4970309;28;20034;-84
2022/05/27 07:31:29;;;;;;;13.63;2.95;;;14.90;99.90;;;;;;4951710;28;20046;-84
2022/05/27 07:33:55;;;;;;;13.25;4.07;;;14.90;99.90;;;;;;4954816;28;20038;-85
2022/05/27 07:36:21;;;;;;;13.10;2.90;;;15.00;99.90;;;;;;4972816;28;20081;-84
2022/05/27 07:38:47;;;;;;;15.63;3.55;;;15.10;99.90;;;;;;4958945;28;20085;-85
2022/05/27 07:41:13;;;;;;;11.98;2.50;;;15.20;99.90;;;;;;4975237;28;20092;-84
2022/05/27 07:43:39;;;;;;;13.57;3.58;;;15.20;99.90;;;;;;4974971;28;20074;-84
2022/05/27 07:46:04;;;;;;;15.77;4.10;;;15.20;99.90;;;;;;4975049;28;20045;-84
2022/05/27 07:48:30;;;;;;;13.30;3.42;;;15.20;99.90;;;;;;4958312;28;20050;-84
2022/05/27 07:50:56;;;;;;;12.18;2.47;;;15.20;99.90;;;;;;4958593;28;20043;-84
2022/05/27 07:53:22;;;;;;;13.30;3.70;;;15.20;99.90;;;;;;4974965;28;20038;-84
2022/05/27 07:55:48;;;;;;;19.55;3.40;;;15.20;99.90;;;;;;4958849;28;20038;-85
2022/05/27 07:58:13;;;;;;;12.27;3.42;;;15.20;99.90;;;;;;4974753;28;20137;-84
2022/05/27 08:00:39;;;;;;;12.48;2.33;;;15.20;99.90;;;;;;4974450;28;20043;-84
2022/05/27 08:03:05;;;;;;;14.50;2.95;;;15.20;99.90;;;;;;4974680;28;20053;-84
2022/05/27 08:05:32;;;;;;;14.75;3.53;;;15.20;99.90;;;;;;4974657;28;20096;-84
2022/05/27 08:07:59;;;;;;;12.70;2.85;;;15.30;99.90;;;;;;4974689;28;20069;-84
2022/05/27 08:10:29;;;;;;;11.77;3.13;;;15.40;99.90;;;;;;4974664;28;20051;-85
2022/05/27 08:12:55;;;;;;;14.20;2.85;;;15.40;99.90;;;;;;4974870;28;20042;-85
2022/05/27 08:15:21;;;;;;;14.75;3.58;;;15.30;99.90;;;;;;4974664;28;20682;-84
2022/05/27 08:17:46;;;;;;;15.85;3.95;;;15.30;99.90;;;;;;4974167;28;20050;-84
2022/05/27 08:20:18;;;;;;;12.90;3.05;;;15.10;99.90;;;;;;4974551;28;20043;-84
2022/05/27 08:22:44;;;;;;;15.57;3.63;;;15.10;99.90;;;;;;4974609;28;20038;-85
2022/05/27 08:25:10;;;;;;;15.35;4.05;;;15.20;99.90;;;;;;4958629;28;20054;-84
2022/05/27 08:27:36;;;;;;;16.35;3.95;;;15.20;99.90;;;;;;4958165;28;20042;-84
2022/05/27 08:30:04;;;;;;;11.25;3.20;;;15.30;99.90;;;;;;4974829;28;20058;-84
2022/05/27 08:32:31;;;;;;;13.50;3.25;;;15.40;99.90;;;;;;4978187;28;20154;-85
2022/05/27 08:38:01;;;;;;;11.85;2.10;;;15.40;99.90;;;;;;4977879;28;20050;-84
2022/05/27 08:40:35;;;;;;;14.65;3.13;;;15.20;99.90;;;;;;4962143;28;20044;-84
2022/05/27 08:43:23;;;;;;;12.13;2.75;;;15.30;99.90;;;;;;4977745;28;20074;-84
2022/05/27 08:45:58;;;;;;;10.73;2.53;;;15.30;99.90;;;;;;4961941;28;20092;-85
2022/05/27 08:48:31;;;;;;;14.05;2.63;;;15.00;93.30;;;;;;4977440;28;20046;-85
2022/05/27 08:51:04;;;;;;;11.50;1.92;;;14.90;94.70;;;;;;4977739;28;20124;-85
2022/05/27 08:53:46;;;;;;;11.93;2.35;;;14.90;97.00;;;;;;4977856;28;20049;-85
2022/05/27 08:59:39;;;;;;;10.35;2.05;;;15.00;94.10;;;;;;4976874;28;20050;-84
2022/05/27 09:02:30;;;;;;;9.50;1.95;;;15.00;96.20;;;;;;4975901;28;20097;-85
2022/05/27 09:05:18;;;;;;;11.48;2.30;;;15.10;94.60;;;;;;4976800;28;20496;-85
2022/05/27 09:07:55;;;;;;;13.93;2.58;;;15.10;94.00;;;;;;4975059;28;20042;-85
2022/05/27 09:11:01;;;;;;;14.77;3.13;;;15.20;99.70;;;;;;4977642;28;20519;-85
2022/05/27 09:13:37;;;;;;;10.82;2.35;;;15.40;96.10;;;;;;4959924;28;20046;-85
2022/05/27 09:16:27;;;;;;;11.20;2.33;;;15.50;98.30;;;;;;4961294;28;20084;-84
2022/05/27 09:19:05;;;;;;;12.30;2.65;;;15.50;94.30;;;;;;4976580;28;20057;-85
2022/05/27 09:21:36;;;;;;;12.82;3.25;;;15.40;96.80;;;;;;4961330;28;20121;-84
2022/05/27 09:24:02;;;;;;;13.52;3.08;;;15.50;99.30;;;;;;4977389;28;20038;-85
2022/05/27 09:26:58;;;;;;;12.45;2.95;;;15.70;99.10;;;;;;4977275;28;20045;-85
2022/05/27 09:29:54;;;;;;;13.60;3.38;;;15.70;97.40;;;;;;4977106;28;20046;-85
2022/05/27 09:32:30;;;;;;;11.35;2.15;;;15.60;94.70;;;;;;4977521;28;20077;-85
2022/05/27 09:35:02;;;;;;;14.20;2.22;;;15.60;97.00;;;;;;4977019;28;20039;-84
2022/05/27 09:37:36;;;;;;;12.73;2.90;;;15.60;97.90;;;;;;4976849;28;20125;-85
2022/05/27 09:40:12;;;;;;;15.90;3.38;;;15.70;97.70;;;;;;4977026;28;20069;-85
2022/05/27 09:43:00;;;;;;;10.85;2.28;;;15.80;97.50;;;;;;4976239;28;20045;-85
2022/05/27 09:45:26;;;;;;;12.90;2.53;;;15.90;95.60;;;;;;4973428;28;20128;-85
2022/05/27 09:48:01;;;;;;;12.82;2.45;;;15.90;97.10;;;;;;4941134;28;20460;-85
2022/05/27 09:50:43;;;;;;;12.50;2.88;;;16.10;96.20;;;;;;4957531;28;20058;-85
2022/05/27 09:53:16;;;;;;;11.23;2.22;;;16.20;99.90;;;;;;4957443;28;20058;-85
2022/05/27 09:55:59;;;;;;;;;;;16.30;99.30;;;;;;4957910;28;20043;-85
2022/05/27 09:58:28;;;;;;;12.68;2.20;;;15.90;93.30;;;;;;4957006;28;19960;-85
2022/05/27 10:00:53;;;;;;;13.68;2.65;;;15.70;96.50;;;;;;4941295;28;20066;-85
2022/05/27 10:03:32;;;;;;;12.00;2.70;;;15.80;96.70;;;;;;4941403;28;20050;-85
2022/05/27 10:06:08;;;;;;;12.60;2.60;;;15.70;99.90;;;;;;4957056;28;20125;-85
2022/05/27 10:08:41;;;;;;;14.88;3.05;;;15.80;99.70;;;;;;4940916;28;20559;-85
2022/05/27 10:11:14;;;;;;;11.32;1.88;;;16.00;99.90;;;;;;4957245;28;20043;-84
2022/05/27 10:13:41;;;;;;;12.35;2.42;;;16.10;99.70;;;;;;4941084;28;20038;-84
2022/05/27 10:16:22;;;;;;;12.40;2.10;;;16.10;97.50;;;;;;4942214;28;20039;-84
2022/05/27 10:19:03;;;;;;;15.60;2.60;;;16.20;94.10;;;;;;4973019;28;20042;-84
2022/05/27 10:21:30;;;;;;;9.90;2.22;;;16.20;93.20;;;;;;4958181;28;20578;-84
2022/05/27 10:24:16;;;;;;;10.18;2.38;;;16.20;97.40;;;;;;4975806;28;20034;-84
2022/05/27 10:26:43;;;;;;;10.43;2.42;;;16.30;98.20;;;;;;4975072;28;20038;-84
2022/05/27 10:29:17;;;;;;;11.63;2.90;;;16.20;96.60;;;;;;4975738;28;20120;-84
2022/05/27 10:31:55;;;;;;;11.85;2.60;;;16.40;99.90;;;;;;4975996;28;20050;-84
2022/05/27 10:34:45;;;;;;;12.70;2.85;;;16.60;93.10;;;;;;4960208;28;20115;-84
2022/05/27 10:37:32;;;;;;;12.73;2.85;;;16.70;96.20;;;;;;4976145;28;20042;-84
2022/05/27 10:40:19;;;;;;;13.30;2.55;;;16.70;94.10;;;;;;4976046;28;20045;-84
2022/05/27 10:42:56;;;;;;;12.68;3.35;;;16.50;93.90;;;;;;4976046;28;20558;-85
2022/05/27 10:45:26;;;;;;;10.82;2.55;;;16.50;95.30;;;;;;4976242;28;20407;-84
2022/05/27 10:48:17;;;;;;;15.25;3.47;;;16.40;95.30;;;;;;4976045;28;20374;-84
2022/05/27 10:51:10;;;;;;;15.00;2.90;;;16.30;96.80;;;;;;4975777;28;20042;-84
2022/05/27 10:54:07;;;;;;;10.75;2.50;;;16.20;93.90;;;;;;4959051;28;20038;-84
2022/05/27 11:02:04;;;;;;;13.20;2.70;;;16.30;93.20;;;;;;4975544;28;20050;-84
2022/05/27 11:03:09;;;;;;;13.07;2.70;;;16.50;94.00;;;;;;4975263;28;20129;-84
2022/05/27 11:05:54;;;;;;;;;;;16.40;89.50;;;;;;4975570;28;20125;-84
2022/05/27 11:08:26;;;;;;;12.02;2.75;;;16.40;86.30;;;;;;4939592;28;19924;-84
2022/05/27 11:11:15;;;;;;;11.75;2.80;;;16.50;91.10;;;;;;4955880;28;20043;-84
2022/05/27 11:17:15;;;;;;;11.90;2.17;;;16.50;94.60;;;;;;4953420;28;20051;-83
2022/05/27 11:20:04;;;;;;;10.65;2.10;;;16.50;91.00;;;;;;4952761;28;20046;-84
2022/05/27 11:22:51;;;;;;;11.68;2.63;;;16.40;85.80;;;;;;4953128;28;20074;-84
2022/05/27 11:25:29;;;;;;;13.13;2.45;;;16.30;86.60;;;;;;4956075;28;20047;-83
2022/05/27 11:28:25;;;;;;;12.15;3.20;;;16.20;91.30;;;;;;4955568;28;20043;-83
2022/05/27 11:31:12;;;;;;;11.68;2.53;;;16.40;94.40;;;;;;4939846;28;20475;-83
2022/05/27 11:34:31;;;;;;;12.23;2.97;;;16.70;92.70;;;;;;4956020;28;20837;-84
2022/05/27 11:37:15;;;;;;;13.05;2.97;;;16.90;88.50;;;;;;4913339;29;20131;-84
2022/05/27 11:40:02;;;;;;;14.30;3.00;;;17.00;84.70;;;;;;4950486;28;20046;-84
2022/05/27 11:42:49;;;;;;;13.75;2.80;;;17.10;93.70;;;;;;4955845;28;20057;-84
2022/05/27 11:45:21;;;;;;;12.80;3.20;;;17.10;92.60;;;;;;4939731;28;20109;-84
2022/05/27 11:48:03;;;;;;;14.48;2.63;;;17.20;90.60;;;;;;4939419;28;20050;-84
2022/05/27 11:50:35;;;;;;;12.38;2.90;;;17.20;87.70;;;;;;4939619;28;20050;-84
2022/05/27 11:53:37;;;;;;;12.63;2.45;;;17.20;93.80;;;;;;4955616;28;20091;-84
2022/05/27 11:56:21;;;;;;;12.25;2.88;;;17.20;89.40;;;;;;4955529;28;20101;-84
2022/05/27 11:59:04;;;;;;;11.63;3.22;;;17.10;91.60;;;;;;4939188;28;20078;-84
2022/05/27 12:01:36;;;;;;;13.02;3.03;;;17.20;90.80;;;;;;4955613;28;20046;-84
2022/05/27 12:04:09;;;;;;;11.32;2.70;;;17.10;85.80;;;;;;4939316;28;20074;-84
2022/05/27 12:07:02;;;;;;;12.90;2.80;;;17.20;87.10;;;;;;4942407;28;20039;-84
2022/05/27 12:09:37;;;;;;;13.80;2.78;;;17.20;88.20;;;;;;4959082;28;20050;-84
2022/05/27 12:12:11;;;;;;;10.25;2.45;;;17.20;81.20;;;;;;4959605;28;20055;-84
2022/05/27 12:14:45;;;;;;;14.23;3.58;;;17.30;83.20;;;;;;4959279;28;20039;-84
2022/05/27 12:17:21;;;;;;;14.50;3.05;;;17.30;86.40;;;;;;4956016;28;20074;-84
2022/05/27 12:19:59;;;;;;;13.63;2.60;;;17.10;80.10;;;;;;4975552;28;20452;-84
2022/05/27 12:22:33;;;;;;;13.05;2.83;;;16.90;86.40;;;;;;4978141;28;20038;-84
2022/05/27 12:25:11;;;;;;;16.02;3.10;;;16.80;83.40;;;;;;4961694;28;20046;-84
2022/05/27 12:27:37;;;;;;;13.57;2.97;;;16.60;84.30;;;;;;4961703;28;20114;-84
2022/05/27 12:30:07;;;;;;;11.82;2.85;;;16.70;89.50;;;;;;4961637;28;20041;-84
2022/05/27 12:32:34;;;;;;;13.55;3.05;;;16.50;91.00;;;;;;4975446;28;20443;-84
2022/05/27 12:35:26;;;;;;;10.85;2.92;;;16.50;93.60;;;;;;4961394;28;20038;-84
2022/05/27 12:38:05;;;;;;;13.43;2.78;;;16.60;91.50;;;;;;4974782;28;20046;-84
2022/05/27 12:40:38;;;;;;;13.07;2.78;;;16.80;93.80;;;;;;4976945;28;20038;-84
2022/05/27 12:43:20;;;;;;;10.65;2.53;;;17.00;91.90;;;;;;4961271;28;20038;-84
2022/05/27 12:45:47;;;;;;;12.83;2.27;;;17.00;90.50;;;;;;4962043;28;20121;-84
2022/05/27 12:48:34;;;;;;;13.50;3.17;;;17.00;91.40;;;;;;4977047;28;20278;-84
2022/05/27 12:51:06;;;;;;;15.00;3.65;;;17.00;88.30;;;;;;4994470;28;20125;-85
2022/05/27 12:53:43;;;;;;;14.05;2.92;;;17.00;91.30;;;;;;4978082;28;20412;-85
2022/05/27 13:02:22;;;;;;;13.27;4.00;;;16.80;89.80;;;;;;4977766;28;20038;-84
2022/05/27 13:04:48;;;;;;;17.73;3.65;;;16.80;91.70;;;;;;4977670;28;20042;-85
2022/05/27 13:07:35;;;;;;;14.43;3.33;;;16.90;92.80;;;;;;4961436;28;20046;-84
2022/05/27 13:10:16;;;;;;;15.98;3.90;;;17.00;92.10;;;;;;4960814;28;20046;-84
2022/05/27 13:12:42;;;;;;;12.57;3.15;;;17.00;91.60;;;;;;4977695;28;20046;-84
2022/05/27 13:15:15;;;;;;;14.07;3.30;;;17.00;94.00;;;;;;4976956;28;20389;-84
2022/05/27 13:17:45;;;;;;;14.13;2.85;;;17.10;95.40;;;;;;4959706;28;20543;-84
2022/05/27 13:20:18;;;;;;;14.20;3.60;;;17.10;91.30;;;;;;4961128;28;20039;-84
2022/05/27 13:23:01;;;;;;;11.30;2.75;;;17.20;90.60;;;;;;4976460;28;20496;-84
2022/05/27 13:25:26;;;;;;;16.73;3.58;;;17.20;88.80;;;;;;4975225;28;20038;-85
2022/05/27 13:27:59;;;;;;;14.18;3.45;;;17.30;89.70;;;;;;4976323;28;20048;-84
2022/05/27 13:30:54;;;;;;;13.02;3.00;;;17.30;89.80;;;;;;4977226;28;20062;-85
2022/05/27 13:33:27;;;;;;;13.20;2.83;;;17.20;85.70;;;;;;4977288;28;20049;-84
2022/05/27 13:35:55;;;;;;;16.00;3.28;;;16.90;89.50;;;;;;4961171;28;20407;-85
2022/05/27 13:38:27;;;;;;;15.48;3.33;;;16.90;92.40;;;;;;4976524;28;20659;-84
2022/05/27 13:40:53;;;;;;;13.90;3.67;;;17.00;94.50;;;;;;4961302;28;20042;-85